Latest Weather Observations for Scotts Peak

IDT60801

Issued at 12:05 am EST Sunday 31 August 2014 (issued every 30 minutes, with the page automatically refreshed every 10 minutes)

About weather observations | Map of weather stations | Latest weather observations for TAS | Other Formats
Station Details ID: 097083 Name: SCOTTS PEAK DAM Lat: -43.04 Lon: 146.27 Height: 408.0 m
Data from the previous 72 hours. | See also: Recent months at Scotts Peak
Date/Time
EST
Temp
°C
App
Temp
°C
Dew
Point
Rel
Hum
%
Delta-T
°C
Wind Press
QNH
hPa
Press
MSL
hPa
Rain
since 9 am
mm
Dir
 
Spd
km/h
Gust
km/h
Spd
kts
Gust
kts
31/12:00am 8.5 5.8 3.8 72 2.1 WNW 7 24 4 13 - - 0.2
 
Date/Time
EST
Temp
°C
App
Temp
°C
Dew
Point
Rel
Hum
%
Delta-T
°C
Wind Press
QNH
hPa
Press
MSL
hPa
Rain
since 9 am
mm
Dir
 
Spd
km/h
Gust
km/h
Spd
kts
Gust
kts
30/11:30pm 8.0 2.8 3.8 75 1.9 N 20 28 11 15 - - 0.2
30/11:00pm 8.4 3.3 4.2 75 1.9 N 20 26 11 14 - - 0.2
30/10:30pm 8.7 3.3 4.3 74 2.0 N 22 28 12 15 - - 0.2
30/10:00pm 8.8 3.8 4.8 76 1.8 N 20 24 11 13 - - 0.2
30/09:30pm 9.1 4.4 5.3 77 1.8 N 19 24 10 13 - - 0.2
30/09:00pm 8.8 5.7 5.4 79 1.6 N 11 15 6 8 - - 0.2
30/08:30pm 9.2 6.1 5.6 78 1.7 N 11 17 6 9 - - 0.2
30/08:00pm 9.9 6.5 5.7 75 2.0 N 13 15 7 8 - - 0.2
30/07:30pm 10.1 7.3 5.3 72 2.2 N 9 11 5 6 - - 0.2
30/07:00pm 10.4 7.9 4.5 67 2.7 NNW 7 9 4 5 - - 0.2
30/06:30pm 11.3 7.9 3.8 60 3.4 N 11 13 6 7 - - 0.2
30/06:00pm 12.2 9.7 3.7 56 3.9 W 6 9 3 5 - - 0.2
30/05:30pm 13.5 10.4 3.8 52 4.5 NNW 9 11 5 6 - - 0.2
30/05:00pm 14.7 11.3 4.1 49 5.0 N 11 15 6 8 - - 0.2
30/04:30pm 16.0 12.4 5.0 48 5.3 NNW 13 17 7 9 - - 0.2
30/04:00pm 17.1 12.8 5.1 45 5.9 N 17 22 9 12 - - 0.2
30/03:30pm 17.9 13.3 5.5 44 6.1 NNW 19 22 10 12 - - 0.2
30/03:00pm 19.2 15.9 6.3 43 6.6 NNW 13 19 7 10 - - 0.2
30/02:30pm 18.9 14.6 7.0 46 6.1 NNW 19 20 10 11 - - 0.2
30/02:00pm 18.6 14.1 7.1 47 5.9 NNW 20 22 11 12 - - 0.2
30/01:30pm 18.7 15.0 7.8 49 5.7 NNW 17 20 9 11 - - 0.2
30/01:00pm 17.8 14.2 8.4 54 4.9 NW 17 19 9 10 - - 0.0
30/12:30pm 17.2 13.8 7.8 54 4.9 NW 15 17 8 9 - - 0.0
30/12:00pm 16.4 13.6 8.4 59 4.2 NNW 13 15 7 8 - - 0.0
30/11:30am 15.2 12.9 9.1 67 3.2 NW 11 13 6 7 - - 0.0
30/11:00am 13.6 11.5 8.4 71 2.7 N 9 13 5 7 - - 0.0
30/10:30am 12.1 11.1 8.8 80 1.7 NNE 4 7 2 4 - - 0.0
30/10:00am 10.0 8.2 7.3 83 1.3 WNW 6 7 3 4 - - 0.0
30/09:30am 8.9 7.6 7.5 91 0.7 NW 4 7 2 4 - - 0.0
30/09:00am 8.2 7.6 7.4 95 0.4 CALM 0 6 0 3 - - 0.0
30/08:30am 7.2 6.5 7.1 99 0.0 CALM 0 0 0 0 - - 0.0
30/08:00am 5.4 3.0 5.3 99 0.0 NW 7 9 4 5 - - 0.0
30/07:30am 5.5 3.7 5.4 99 0.0 NW 4 7 2 4 - - 0.0
30/07:00am 5.9 4.9 5.8 99 0.0 CALM 0 0 0 0 - - 0.0
30/06:30am 5.5 3.7 5.4 99 0.0 N 4 7 2 4 - - 0.0
30/06:00am 4.9 2.4 4.6 98 0.1 N 7 9 4 5 - - 0.0
30/05:30am 6.1 4.4 6.0 99 0.0 N 4 6 2 3 - - 0.0
30/05:00am 6.1 4.0 6.0 99 0.0 SE 6 7 3 4 - - 0.0
30/04:30am 5.9 3.6 5.6 98 0.1 SSE 7 9 4 5 - - 0.0
30/04:00am 6.2 4.5 5.8 97 0.2 SE 4 9 2 5 - - 0.0
30/03:30am 6.6 5.8 6.3 98 0.1 CALM 0 0 0 0 - - 0.0
30/03:00am 6.5 4.5 6.2 98 0.1 SE 6 7 3 4 - - 0.0
30/02:30am 6.5 4.2 5.9 96 0.3 SE 7 9 4 5 - - 0.0
30/02:00am 7.0 4.5 6.4 96 0.3 SSE 9 9 5 5 - - 0.0
30/01:30am 7.1 5.5 6.4 95 0.3 SE 4 7 2 4 - - 0.0
30/01:00am 7.3 6.4 6.2 93 0.5 CALM 0 0 0 0 - - 0.0
30/12:30am 8.1 6.6 6.7 91 0.7 S 4 7 2 4 - - 0.0
30/12:00am 8.4 6.6 7.2 92 0.6 SSE 6 7 3 4 - - 0.0
 
Date/Time
EST
Temp
°C
App
Temp
°C
Dew
Point
Rel
Hum
%
Delta-T
°C
Wind Press
QNH
hPa
Press
MSL
hPa
Rain
since 9 am
mm
Dir
 
Spd
km/h
Gust
km/h
Spd
kts
Gust
kts
29/11:30pm 8.4 6.4 7.0 91 0.7 SE 7 11 4 6 - - 0.0
29/11:00pm 8.5 6.1 7.0 90 0.7 SSE 9 11 5 6 - - 0.0
29/10:30pm 8.8 6.8 7.1 89 0.8 SE 7 9 4 5 - - 0.0
29/10:00pm 8.6 6.1 6.6 87 0.9 ESE 9 11 5 6 - - 0.0
29/09:30pm 9.2 7.4 7.3 88 0.9 NE 6 7 3 4 - - 0.0
29/09:00pm 9.2 8.2 7.2 87 1.0 NE 2 7 1 4 - - 0.0
29/08:30pm 9.8 9.2 7.2 84 1.3 CALM 0 4 0 2 - - 0.0
29/08:00pm 10.2 8.2 7.3 82 1.4 NNW 7 9 4 5 - - 0.0
29/07:30pm 10.6 9.6 7.5 81 1.5 NW 2 6 1 3 - - 0.0
29/07:00pm 9.8 7.8 7.1 83 1.3 NW 7 7 4 4 - - 0.0
29/06:30pm 10.4 8.4 7.1 80 1.6 NW 7 9 4 5 - - 0.0
29/06:00pm 11.3 9.5 7.0 75 2.1 NW 6 7 3 4 - - 0.0
29/05:30pm 12.3 10.0 7.6 73 2.3 WSW 9 13 5 7 - - 0.0
29/05:00pm 13.8 10.9 8.0 68 2.9 WSW 13 17 7 9 - - 0.0
29/04:30pm 16.5 13.4 7.2 54 4.7 NNW 13 17 7 9 - - 0.0
29/04:00pm 17.4 13.8 6.6 49 5.5 NNW 15 17 8 9 - - 0.0
29/03:30pm 18.0 14.5 7.1 49 5.6 NNW 15 17 8 9 - - 0.0
29/03:00pm 18.5 14.7 7.6 49 5.7 NNW 17 20 9 11 - - 0.0
29/02:30pm 18.4 14.5 7.2 48 5.8 NNW 17 19 9 10 - - 0.0
29/02:00pm 18.9 15.0 7.0 46 6.1 NNW 17 20 9 11 - - 0.0
29/01:30pm 17.1 13.3 6.0 48 5.5 NW 15 19 8 10 - - 0.0
29/01:00pm 17.8 14.1 7.8 52 5.2 NNW 17 20 9 11 - - 0.0
29/12:30pm 17.1 14.0 8.8 58 4.4 NNW 15 19 8 10 - - 0.0
29/12:00pm 15.6 12.6 7.9 60 3.9 NNW 13 17 7 9 - - 0.0
29/11:30am 14.5 11.6 8.0 65 3.3 NW 13 15 7 8 - - 0.0
29/11:00am 13.8 10.8 7.6 66 3.1 NNW 13 15 7 8 - - 0.0
29/10:30am 12.0 9.6 6.9 71 2.5 NW 9 13 5 7 - - 0.0
29/10:00am 12.4 9.6 8.7 78 1.9 NNW 13 15 7 8 - - 0.0
29/09:30am 10.9 9.2 8.3 84 1.3 NNW 7 11 4 6 - - 0.0
29/09:00am 9.5 7.7 7.3 86 1.1 N 6 9 3 5 - - 0.0
29/08:30am 8.0 6.4 7.9 99 0.0 NNW 6 7 3 4 - - 0.0
29/08:00am 6.9 4.5 6.8 99 0.0 N 9 13 5 7 - - 0.0
29/07:30am 6.6 3.7 6.5 99 0.0 N 11 13 6 7 - - 0.0
29/07:00am 6.2 2.8 5.9 98 0.1 N 13 17 7 9 - - 0.0
29/06:30am 5.9 3.6 5.5 97 0.2 NNW 7 9 4 5 - - 0.0
29/06:00am 6.2 3.1 5.6 96 0.3 N 11 15 6 8 - - 0.0
29/05:30am 6.9 4.9 6.3 96 0.3 NNW 6 9 3 5 - - 0.0
29/05:00am 6.9 3.9 6.2 95 0.3 NNW 11 13 6 7 - - 0.0
29/04:30am 7.3 5.2 6.6 95 0.3 NNW 7 11 4 6 - - 0.0
29/04:00am 7.3 4.7 5.9 91 0.6 N 9 11 5 6 - - 0.0
29/03:30am 8.3 5.9 7.1 92 0.6 NNW 9 11 5 6 - - 0.0
29/03:00am 8.3 6.3 7.1 92 0.6 NNW 7 9 4 5 - - 0.0
29/02:30am 8.5 6.7 7.3 92 0.6 NW 6 9 3 5 - - 0.0
29/02:00am 8.1 5.3 6.9 92 0.6 N 11 13 6 7 - - 0.0
29/01:30am 8.6 6.8 7.1 90 0.7 NW 6 7 3 4 - - 0.0
29/01:00am 8.8 6.1 7.4 91 0.7 N 11 13 6 7 - - 0.0
29/12:30am 8.7 6.4 7.6 93 0.5 N 9 11 5 6 - - 0.0
29/12:00am 8.7 6.4 7.3 91 0.7 NNW 9 9 5 5 - - 0.0
 
Date/Time
EST
Temp
°C
App
Temp
°C
Dew
Point
Rel
Hum
%
Delta-T
°C
Wind Press
QNH
hPa
Press
MSL
hPa
Rain
since 9 am
mm
Dir
 
Spd
km/h
Gust
km/h
Spd
kts
Gust
kts
28/11:30pm 8.9 6.6 7.4 90 0.7 NNW 9 11 5 6 - - 0.0
28/11:00pm 9.1 6.4 7.4 89 0.8 NW 11 17 6 9 - - 0.0
28/10:30pm 9.0 6.7 7.5 90 0.7 N 9 13 5 7 - - 0.0
28/10:00pm 9.3 7.5 7.3 87 1.0 NNW 6 7 3 4 - - 0.0
28/09:30pm 9.3 7.5 7.1 86 1.1 W 6 9 3 5 - - 0.0
28/09:00pm 9.5 6.7 7.1 85 1.2 WSW 11 15 6 8 - - 0.0
28/08:30pm 9.5 6.8 7.3 86 1.1 W 11 15 6 8 - - 0.0
28/08:00pm 9.6 6.5 7.4 86 1.1 S 13 20 7 11 - - 0.0
28/07:30pm 9.5 5.0 7.1 85 1.2 WSW 20 30 11 16 - - 0.0
28/07:00pm 9.8 5.0 7.4 85 1.2 WSW 22 30 12 16 - - 0.0
28/06:30pm 10.2 5.4 7.4 83 1.4 WSW 22 28 12 15 - - 0.0
28/06:00pm 10.7 6.0 7.6 81 1.5 WSW 22 26 12 14 - - 0.0
28/05:30pm 11.5 8.3 6.8 73 2.3 WSW 13 17 7 9 - - 0.0
28/05:00pm 12.9 10.4 6.7 66 3.0 WSW 9 13 5 7 - - 0.0
28/04:30pm 12.8 9.8 6.2 64 3.2 SW 11 17 6 9 - - 0.0
28/04:00pm 14.7 12.5 6.0 56 4.3 NW 7 9 4 5 - - 0.0
28/03:30pm 16.0 13.1 6.4 53 4.8 NNW 11 15 6 8 - - 0.0
28/03:00pm 16.8 14.2 7.7 55 4.7 NNW 11 17 6 9 - - 0.0
28/02:30pm 15.7 13.1 5.9 52 4.8 NW 9 13 5 7 - - 0.0
28/02:00pm 15.6 13.3 7.4 58 4.2 NW 9 13 5 7 - - 0.0
28/01:30pm 15.6 13.4 9.3 66 3.3 NW 11 15 6 8 - - 0.0
28/01:00pm 16.4 14.4 10.0 66 3.4 NNW 11 15 6 8 - - 0.0
28/12:30pm 14.3 12.5 9.5 73 2.5 NW 9 11 5 6 - - 0.0
28/12:00pm 13.7 12.3 9.6 76 2.1 NNW 7 11 4 6 - - 0.0
28/11:30am 12.0 11.0 8.8 81 1.6 S 4 7 2 4 - - 0.0
28/11:00am 11.0 9.6 8.9 87 1.1 S 6 9 3 5 - - 0.0
28/10:30am 11.4 9.3 9.7 89 0.9 NNW 11 13 6 7 - - 0.0
28/10:00am 11.1 8.7 10.0 93 0.6 NNW 13 13 7 7 - - 0.0
28/09:30am 10.6 8.9 9.7 94 0.5 NNW 9 11 5 6 - - 0.0
28/09:00am 10.2 8.8 9.6 96 0.3 NNW 7 9 4 5 - - 0.4
28/08:30am 8.9 8.1 8.3 96 0.3 NNW 2 7 1 4 - - 0.4
28/08:00am 8.7 6.6 8.3 97 0.2 SSE 9 9 5 5 - - 0.4
28/07:30am 7.9 5.6 7.5 97 0.2 SSE 9 11 5 6 - - 0.4
28/07:00am 7.8 5.5 7.4 97 0.2 SE 9 15 5 8 - - 0.4
28/06:30am 8.3 6.5 7.9 97 0.2 SSW 7 9 4 5 - - 0.4
28/06:00am 8.2 6.0 7.9 98 0.1 S 9 11 5 6 - - 0.4
28/05:30am 8.2 6.1 8.1 99 0.0 SSE 9 11 5 6 - - 0.2
28/05:00am 8.1 5.9 7.8 98 0.1 SE 9 11 5 6 - - 0.2
28/04:30am 8.5 6.4 8.4 99 0.0 SSE 9 13 5 7 - - 0.2
28/04:00am 8.6 6.2 8.5 99 0.0 SSE 11 17 6 9 - - 0.2
28/03:30am 8.9 7.3 8.6 98 0.1 SE 7 11 4 6 - - 0.2
28/03:00am 9.3 9.1 9.0 98 0.2 CALM 0 0 0 0 - - 0.2
28/02:30am 9.3 7.9 9.0 98 0.2 ESE 6 7 3 4 - - 0.2
28/02:00am 9.0 7.4 8.7 98 0.1 ESE 7 9 4 5 - - 0.2
28/01:30am 8.7 7.0 8.3 97 0.2 ESE 7 9 4 5 - - 0.2
28/01:00am 9.0 7.3 8.5 97 0.2 ESE 7 11 4 6 - - 0.2
28/12:30am 9.3 7.9 8.7 96 0.3 E 6 7 3 4 - - 0.2

Other Formats:

Comma delimited format used in spreadsheet applications
http://www.bom.gov.au/fwo/IDT60801/IDT60801.95958.axf

JavaScript Object Notation format (JSON) in row-major order
http://www.bom.gov.au/fwo/IDT60801/IDT60801.95958.json